createdAt,value
2023-02-27T00:00:20.245Z,61.77
2023-02-27T00:03:23.211Z,61.84
2023-02-27T00:06:26.341Z,61.58
2023-02-27T00:09:29.314Z,61.78
2023-02-27T00:12:38.043Z,61.67
2023-02-27T00:15:41.142Z,61.63
2023-02-27T00:18:44.195Z,62.32
2023-02-27T00:21:47.845Z,62.21
2023-02-27T00:24:50.876Z,61.80
2023-02-27T00:27:54.000Z,62.03
2023-02-27T00:30:57.265Z,62.08
2023-02-27T00:34:00.570Z,62.20
2023-02-27T00:37:03.912Z,62.01
2023-02-27T00:40:09.957Z,62.43
2023-02-27T00:43:13.094Z,62.74
2023-02-27T00:46:16.131Z,62.43
2023-02-27T00:49:20.216Z,62.14
2023-02-27T00:52:23.226Z,62.45
2023-02-27T00:55:27.353Z,61.94
2023-02-27T00:58:30.339Z,61.72
2023-02-27T01:01:33.772Z,61.98
2023-02-27T01:04:36.959Z,61.79
2023-02-27T01:07:40.243Z,61.25
2023-02-27T01:10:44.146Z,61.43
2023-02-27T01:13:47.245Z,61.43
2023-02-27T01:16:50.202Z,61.00
2023-02-27T01:19:53.016Z,60.70
2023-02-27T01:22:55.712Z,60.42
2023-02-27T01:25:58.381Z,60.44
2023-02-27T01:29:04.666Z,60.26
2023-02-27T01:32:08.787Z,60.66
2023-02-27T01:35:11.418Z,60.13
2023-02-27T01:38:14.136Z,59.66
2023-02-27T01:41:17.037Z,59.33
2023-02-27T01:44:19.618Z,59.67
2023-02-27T01:47:23.010Z,59.21
2023-02-27T01:50:25.795Z,59.13
2023-02-27T01:53:31.157Z,58.67
2023-02-27T01:56:33.721Z,59.35
2023-02-27T01:59:38.981Z,59.41
2023-02-27T02:02:48.946Z,59.44
2023-02-27T02:05:55.448Z,59.60
2023-02-27T02:09:00.582Z,59.51
2023-02-27T02:12:04.998Z,59.20
2023-02-27T02:15:08.055Z,59.04
2023-02-27T02:18:19.444Z,59.13
2023-02-27T02:21:31.078Z,59.24
2023-02-27T02:25:05.985Z,59.42
2023-02-27T02:28:27.697Z,59.50
2023-02-27T02:31:47.113Z,59.50
2023-02-27T02:35:04.994Z,59.32
2023-02-27T02:38:19.709Z,59.24
2023-02-27T02:41:52.785Z,59.49
2023-02-27T02:44:58.341Z,59.78
2023-02-27T02:48:16.797Z,60.07
2023-02-27T02:51:43.103Z,60.18
2023-02-27T02:54:53.410Z,60.31
2023-02-27T02:58:09.040Z,60.20
2023-02-27T03:02:03.873Z,59.52
2023-02-27T03:05:15.789Z,59.05
2023-02-27T03:08:22.611Z,59.21
2023-02-27T03:11:30.226Z,58.73
2023-02-27T03:14:40.535Z,58.01
2023-02-27T03:17:43.562Z,57.99
2023-02-27T03:20:57.364Z,57.93
2023-02-27T03:24:03.815Z,57.29
2023-02-27T03:27:09.354Z,56.86
2023-02-27T03:30:27.425Z,57.08
2023-02-27T03:33:39.050Z,56.49
2023-02-27T03:36:58.438Z,56.87
2023-02-27T03:40:23.406Z,57.11
2023-02-27T03:43:42.162Z,57.01
2023-02-27T03:46:44.825Z,57.54
2023-02-27T03:49:51.375Z,57.15
2023-02-27T03:52:58.091Z,57.76
2023-02-27T03:56:05.771Z,57.97
2023-02-27T03:59:08.508Z,58.04
2023-02-27T04:02:16.121Z,58.74
2023-02-27T04:05:20.239Z,58.48
2023-02-27T04:09:01.623Z,58.71
2023-02-27T04:12:19.527Z,58.94
2023-02-27T04:16:00.961Z,58.80
2023-02-27T04:19:29.368Z,58.67
2023-02-27T04:22:44.850Z,58.66
2023-02-27T04:26:08.489Z,58.50
2023-02-27T04:29:20.467Z,58.38
2023-02-27T04:32:35.742Z,58.63
2023-02-27T04:35:50.874Z,58.57
2023-02-27T04:38:57.991Z,58.33
2023-02-27T04:42:09.685Z,58.19
2023-02-27T04:45:16.772Z,58.31
2023-02-27T04:48:30.324Z,58.52
2023-02-27T04:51:58.444Z,58.33
2023-02-27T04:55:20.967Z,58.29
2023-02-27T04:58:37.298Z,58.30
2023-02-27T05:01:54.174Z,58.16
2023-02-27T05:05:00.510Z,57.90
2023-02-27T05:08:12.904Z,58.41
2023-02-27T05:11:24.058Z,57.96
2023-02-27T05:14:36.525Z,57.50
2023-02-27T05:17:50.229Z,58.06
2023-02-27T05:21:21.193Z,56.63
2023-02-27T05:24:29.178Z,56.60
2023-02-27T05:27:47.839Z,56.33
2023-02-27T05:30:59.269Z,55.45
2023-02-27T05:34:23.545Z,55.64
2023-02-27T05:38:16.915Z,55.64
2023-02-27T05:41:28.945Z,54.87
2023-02-27T05:44:38.658Z,54.36
2023-02-27T05:47:46.802Z,54.74
2023-02-27T05:50:52.689Z,54.62
2023-02-27T05:54:06.520Z,54.39
2023-02-27T05:57:14.456Z,54.79
2023-02-27T06:05:44.419Z,54.64
2023-02-27T06:08:47.268Z,54.35
2023-02-27T06:11:49.979Z,54.25
2023-02-27T06:14:52.795Z,54.87
2023-02-27T06:17:56.422Z,54.39
2023-02-27T06:20:59.215Z,54.10
2023-02-27T06:24:01.797Z,54.30
2023-02-27T06:27:04.507Z,53.66
2023-02-27T06:30:07.761Z,53.96
2023-02-27T06:33:12.414Z,53.36
2023-02-27T06:36:15.299Z,53.25
2023-02-27T06:39:18.203Z,53.08
2023-02-27T06:42:21.177Z,53.41
2023-02-27T06:45:24.399Z,52.58
2023-02-27T06:48:27.164Z,52.54
2023-02-27T06:51:30.040Z,53.04
2023-02-27T06:54:35.185Z,53.06
2023-02-27T06:57:37.841Z,52.60
2023-02-27T07:00:40.505Z,51.91
2023-02-27T07:03:44.379Z,51.71
2023-02-27T07:07:34.311Z,51.67
2023-02-27T07:10:13.266Z,51.38
2023-02-27T07:13:19.522Z,50.24
2023-02-27T07:16:22.965Z,50.00
2023-02-27T07:19:25.634Z,50.14
2023-02-27T07:22:28.442Z,49.90
2023-02-27T07:25:31.250Z,49.87
2023-02-27T07:28:34.238Z,50.62
2023-02-27T07:31:37.334Z,50.89
2023-02-27T07:34:40.263Z,51.34
2023-02-27T07:37:42.923Z,52.27
2023-02-27T07:40:46.496Z,51.63
2023-02-27T07:43:49.125Z,52.09
2023-02-27T07:46:51.949Z,51.96
2023-02-27T07:49:55.275Z,51.55
2023-02-27T07:52:57.907Z,51.19
2023-02-27T07:56:00.688Z,51.12
2023-02-27T07:59:03.788Z,50.34
2023-02-27T08:02:07.738Z,50.42
2023-02-27T08:05:11.336Z,50.15
2023-02-27T08:08:14.413Z,50.09
2023-02-27T08:11:18.519Z,49.98
2023-02-27T08:14:21.720Z,50.14
2023-02-27T08:17:24.394Z,50.51
2023-02-27T08:20:27.868Z,49.42
2023-02-27T08:23:32.214Z,49.43
2023-02-27T08:26:35.303Z,49.69
2023-02-27T08:29:37.980Z,49.96
2023-02-27T08:32:41.522Z,50.06
2023-02-27T08:35:44.375Z,50.35
2023-02-27T08:38:47.191Z,49.66
2023-02-27T08:41:52.635Z,49.82
2023-02-27T08:44:56.714Z,49.04
2023-02-27T08:47:59.329Z,48.12
2023-02-27T08:51:02.156Z,47.74
2023-02-27T08:54:04.861Z,47.79
2023-02-27T08:57:07.516Z,46.54
2023-02-27T09:00:10.899Z,46.41
2023-02-27T09:03:14.182Z,45.00
2023-02-27T09:06:17.214Z,44.29
2023-02-27T09:09:20.843Z,44.75
2023-02-27T09:12:24.328Z,44.25
2023-02-27T09:15:28.155Z,42.94
2023-02-27T09:18:31.127Z,42.40
2023-02-27T09:21:34.738Z,42.86
2023-02-27T09:24:37.520Z,41.49
2023-02-27T09:27:40.981Z,40.82
2023-02-27T09:30:43.683Z,41.10
2023-02-27T09:33:46.639Z,42.23
2023-02-27T09:36:49.276Z,42.92
2023-02-27T09:39:52.438Z,43.84
2023-02-27T09:43:00.647Z,44.57
2023-02-27T09:46:04.569Z,44.49
2023-02-27T09:49:16.106Z,44.23
2023-02-27T09:52:19.219Z,45.11
2023-02-27T09:55:23.917Z,44.60
2023-02-27T09:58:53.195Z,43.29
2023-02-27T10:02:13.696Z,41.55
2023-02-27T10:05:18.955Z,42.77
2023-02-27T10:08:48.277Z,42.26
2023-02-27T10:12:05.845Z,42.31
2023-02-27T10:15:44.168Z,41.23
2023-02-27T10:18:58.427Z,40.49
2023-02-27T10:22:06.558Z,41.77
2023-02-27T10:25:30.666Z,41.90
2023-02-27T10:28:34.418Z,42.95
2023-02-27T10:31:37.491Z,44.13
2023-02-27T10:34:44.031Z,42.74
2023-02-27T10:37:57.975Z,42.62
2023-02-27T10:41:03.866Z,43.68
2023-02-27T10:44:07.078Z,44.79
2023-02-27T10:47:17.380Z,45.10
2023-02-27T10:50:23.590Z,44.39
2023-02-27T10:53:28.248Z,45.00
2023-02-27T10:56:31.576Z,44.36
2023-02-27T10:59:38.482Z,44.38
2023-02-27T11:02:43.929Z,44.60
2023-02-27T11:05:53.446Z,44.80
2023-02-27T11:09:11.763Z,45.41
2023-02-27T11:12:28.871Z,45.75
2023-02-27T11:15:34.256Z,45.34
2023-02-27T11:18:47.792Z,45.37
2023-02-27T11:22:00.791Z,46.65
2023-02-27T11:25:24.573Z,46.33
2023-02-27T11:28:30.123Z,46.62
2023-02-27T11:31:35.413Z,47.54
2023-02-27T11:34:56.171Z,47.77
2023-02-27T11:38:07.651Z,46.60
2023-02-27T11:41:12.397Z,47.56
2023-02-27T11:44:27.909Z,46.40
2023-02-27T11:47:47.864Z,46.10
2023-02-27T11:51:08.603Z,45.47
2023-02-27T11:54:34.949Z,46.32
2023-02-27T11:57:41.508Z,46.79
2023-02-27T12:00:55.690Z,46.25
2023-02-27T12:04:10.119Z,46.65
2023-02-27T12:07:21.866Z,46.51
2023-02-27T12:10:49.879Z,46.34
2023-02-27T12:14:02.516Z,45.50
2023-02-27T12:17:17.360Z,46.30
2023-02-27T12:20:32.313Z,46.33
2023-02-27T12:23:50.010Z,45.48
2023-02-27T12:27:44.401Z,45.65
2023-02-27T12:31:24.807Z,45.74
2023-02-27T12:34:41.044Z,46.10
2023-02-27T12:37:44.101Z,46.63
2023-02-27T12:41:14.950Z,46.44
2023-02-27T12:44:51.239Z,46.65
2023-02-27T12:48:06.468Z,46.68
2023-02-27T12:51:32.354Z,46.78
2023-02-27T12:54:58.687Z,46.80
2023-02-27T12:58:23.056Z,47.13
2023-02-27T13:01:29.012Z,47.09
2023-02-27T13:04:46.618Z,46.97
2023-02-27T13:07:58.220Z,46.96
2023-02-27T13:11:29.110Z,47.06
2023-02-27T13:14:48.517Z,46.94
2023-02-27T13:18:23.600Z,47.38
2023-02-27T13:21:38.836Z,47.95
2023-02-27T13:24:49.559Z,47.25
2023-02-27T13:27:58.570Z,46.51
2023-02-27T13:31:06.126Z,47.67
2023-02-27T13:34:44.660Z,47.43
2023-02-27T13:38:23.745Z,47.24
2023-02-27T13:41:35.542Z,46.94
2023-02-27T13:44:41.847Z,47.16
2023-02-27T13:47:50.242Z,46.82
2023-02-27T13:50:53.064Z,47.34
2023-02-27T13:54:14.207Z,45.56
2023-02-27T13:57:23.290Z,45.63
2023-02-27T14:00:30.284Z,45.21
2023-02-27T14:03:33.139Z,45.42
2023-02-27T14:06:44.472Z,44.91
2023-02-27T14:09:50.443Z,45.55
2023-02-27T14:12:53.426Z,45.97
2023-02-27T14:15:57.955Z,45.57
2023-02-27T14:19:01.800Z,45.97
2023-02-27T14:22:16.353Z,46.66
2023-02-27T14:25:32.016Z,46.66
2023-02-27T14:28:41.615Z,46.86
2023-02-27T14:31:45.240Z,47.08
2023-02-27T14:34:48.692Z,46.82
2023-02-27T14:37:53.870Z,47.55
2023-02-27T14:41:02.213Z,47.82
2023-02-27T14:44:07.418Z,47.38
2023-02-27T14:47:38.272Z,46.92
2023-02-27T14:50:42.007Z,47.32
2023-02-27T14:53:44.520Z,47.50
2023-02-27T14:56:57.147Z,47.29
2023-02-27T14:59:59.777Z,47.80
2023-02-27T15:03:16.558Z,48.21
2023-02-27T15:06:29.467Z,47.77
2023-02-27T15:09:48.290Z,48.74
2023-02-27T15:12:52.469Z,49.46
2023-02-27T15:16:21.121Z,50.37
2023-02-27T15:19:26.656Z,49.53
2023-02-27T15:22:39.423Z,49.61
2023-02-27T15:25:43.388Z,50.02
2023-02-27T15:28:49.285Z,50.63
2023-02-27T15:31:53.355Z,50.41
2023-02-27T15:35:02.721Z,51.14
2023-02-27T15:38:06.173Z,50.69
2023-02-27T15:41:12.488Z,50.92
2023-02-27T15:44:23.510Z,51.04
2023-02-27T15:47:29.722Z,51.81
2023-02-27T15:50:43.167Z,51.97
2023-02-27T15:53:50.770Z,52.09
2023-02-27T15:56:54.057Z,52.44
2023-02-27T15:59:58.828Z,52.82
2023-02-27T16:03:01.966Z,52.83
2023-02-27T16:06:33.232Z,52.95
2023-02-27T16:09:38.447Z,53.55
2023-02-27T16:12:43.188Z,53.73
2023-02-27T16:15:45.966Z,54.12
2023-02-27T16:18:51.421Z,54.77
2023-02-27T16:22:13.587Z,55.06
2023-02-27T16:25:19.746Z,55.55
2023-02-27T16:28:22.622Z,55.85
2023-02-27T16:31:25.673Z,55.55
2023-02-27T16:34:44.217Z,55.61
2023-02-27T16:37:49.761Z,55.77
2023-02-27T16:40:52.584Z,56.09
2023-02-27T16:43:56.706Z,55.81
2023-02-27T16:46:59.749Z,55.66
2023-02-27T16:50:02.852Z,56.29
2023-02-27T16:53:05.668Z,56.36
2023-02-27T16:56:12.227Z,56.42
2023-02-27T16:59:35.162Z,56.54
2023-02-27T17:02:38.929Z,56.62
2023-02-27T17:05:41.698Z,56.62
2023-02-27T17:08:44.889Z,56.69
2023-02-27T17:11:47.619Z,56.60
2023-02-27T17:14:50.682Z,57.08
2023-02-27T17:17:53.437Z,56.97
2023-02-27T17:20:59.757Z,57.00
2023-02-27T17:24:03.037Z,57.41
2023-02-27T17:27:06.731Z,57.54
2023-02-27T17:30:10.384Z,58.16
2023-02-27T17:33:13.483Z,58.25
2023-02-27T17:36:16.889Z,58.20
2023-02-27T17:39:19.922Z,58.63
2023-02-27T17:42:25.700Z,58.32
2023-02-27T17:45:29.109Z,58.61
2023-02-27T17:48:32.138Z,58.20
2023-02-27T17:51:35.177Z,58.37
2023-02-27T17:54:38.118Z,58.41
2023-02-27T17:57:41.680Z,58.64
2023-02-27T18:00:44.786Z,58.54
2023-02-27T18:03:49.505Z,58.29
2023-02-27T18:06:52.331Z,58.81
2023-02-27T18:09:55.896Z,58.97
2023-02-27T18:12:58.955Z,59.20
2023-02-27T18:16:02.081Z,59.15
2023-02-27T18:19:06.581Z,58.99
2023-02-27T18:22:11.393Z,59.15
2023-02-27T18:25:15.848Z,59.50
2023-02-27T18:28:19.747Z,60.03
2023-02-27T18:31:28.622Z,59.90
2023-02-27T18:34:31.591Z,59.77
2023-02-27T18:37:34.799Z,59.64
2023-02-27T18:40:37.884Z,59.88
2023-02-27T18:43:42.700Z,60.03
2023-02-27T18:46:45.775Z,59.85
2023-02-27T18:49:48.827Z,59.24
2023-02-27T18:52:52.028Z,59.33
2023-02-27T18:56:00.630Z,59.67
2023-02-27T18:59:05.686Z,59.58
2023-02-27T19:02:15.984Z,59.75
2023-02-27T19:05:19.195Z,59.85
2023-02-27T19:08:25.090Z,59.81
2023-02-27T19:11:33.202Z,59.84
2023-02-27T19:14:38.040Z,60.48
2023-02-27T19:17:41.377Z,60.60
2023-02-27T19:20:44.451Z,60.75
2023-02-27T19:23:47.805Z,61.02
2023-02-27T19:26:53.369Z,61.29
2023-02-27T19:29:56.865Z,61.14
2023-02-27T19:32:59.890Z,61.29
2023-02-27T19:36:13.196Z,61.57
2023-02-27T19:39:16.290Z,61.84
2023-02-27T19:42:19.619Z,62.47
2023-02-27T19:45:23.433Z,62.70
2023-02-27T19:48:26.703Z,62.89
2023-02-27T19:51:30.010Z,63.07
2023-02-27T19:54:33.336Z,63.54
2023-02-27T19:57:37.005Z,63.19
2023-02-27T20:00:42.038Z,63.24
2023-02-27T20:03:45.305Z,63.36
2023-02-27T20:06:50.946Z,63.25
2023-02-27T20:09:54.405Z,63.03
2023-02-27T20:12:57.907Z,63.11
2023-02-27T20:16:07.462Z,63.62
2023-02-27T20:19:13.398Z,63.08
2023-02-27T20:22:17.171Z,63.50
2023-02-27T20:25:20.291Z,63.29
2023-02-27T20:28:23.585Z,63.58
2023-02-27T20:31:29.759Z,63.74
2023-02-27T20:34:33.211Z,63.92
2023-02-27T20:37:36.578Z,64.23
2023-02-27T20:40:39.463Z,64.19
2023-02-27T20:43:43.505Z,64.65
2023-02-27T20:46:49.287Z,64.75
2023-02-27T20:49:53.162Z,65.21
2023-02-27T20:52:56.169Z,64.94
2023-02-27T20:55:59.044Z,65.30
2023-02-27T20:59:03.663Z,65.06
2023-02-27T21:02:08.887Z,65.18
2023-02-27T21:05:12.059Z,65.12
2023-02-27T21:08:15.603Z,65.33
2023-02-27T21:11:21.725Z,65.39
2023-02-27T21:14:24.611Z,65.61
2023-02-27T21:17:27.512Z,65.78
2023-02-27T21:20:31.726Z,65.40
2023-02-27T21:23:41.581Z,65.31
2023-02-27T21:26:45.168Z,65.23
2023-02-27T21:29:49.026Z,65.40
2023-02-27T21:32:51.948Z,65.51
2023-02-27T21:35:54.902Z,65.45
2023-02-27T21:39:07.716Z,65.60
2023-02-27T21:42:10.392Z,65.72
2023-02-27T21:45:13.590Z,66.09
2023-02-27T21:48:16.241Z,66.12
2023-02-27T21:51:32.969Z,66.19
2023-02-27T21:54:39.533Z,66.41
2023-02-27T21:57:42.549Z,66.40
2023-02-27T22:00:45.281Z,65.75
2023-02-27T22:03:50.974Z,66.05
2023-02-27T22:06:53.734Z,66.17
2023-02-27T22:09:56.942Z,66.37
2023-02-27T22:12:59.695Z,66.52
2023-02-27T22:16:08.243Z,66.55
2023-02-27T22:19:19.865Z,67.07
2023-02-27T22:22:23.301Z,67.46
2023-02-27T22:25:26.336Z,67.35
2023-02-27T22:28:30.619Z,67.91
2023-02-27T22:31:36.935Z,67.78
2023-02-27T22:34:39.890Z,67.68
2023-02-27T22:37:42.970Z,68.72
2023-02-27T22:40:45.945Z,68.05
2023-02-27T22:43:48.589Z,68.75
2023-02-27T22:46:51.488Z,68.69
2023-02-27T22:49:54.076Z,68.19
2023-02-27T22:52:57.298Z,68.39
2023-02-27T22:56:00.117Z,68.59
2023-02-27T22:59:03.772Z,68.44
2023-02-27T23:02:06.756Z,68.12
2023-02-27T23:05:10.154Z,68.12
2023-02-27T23:08:12.887Z,68.86
2023-02-27T23:11:17.112Z,68.80
2023-02-27T23:14:21.671Z,69.05
2023-02-27T23:17:24.822Z,69.18
2023-02-27T23:20:27.697Z,69.51
2023-02-27T23:23:30.660Z,69.36
2023-02-27T23:26:47.258Z,69.33
2023-02-27T23:29:50.084Z,70.03
2023-02-27T23:32:53.077Z,70.12
2023-02-27T23:35:57.925Z,70.46
2023-02-27T23:39:03.003Z,70.44
2023-02-27T23:42:06.305Z,70.22
2023-02-27T23:45:22.787Z,70.35
2023-02-27T23:48:25.919Z,70.66
2023-02-27T23:51:30.589Z,70.55
2023-02-27T23:54:34.022Z,70.21
2023-02-27T23:57:36.854Z,69.96
